Time;durP1;ratioP1;P1;durP2;ratioP2;P2;SDS_P1;SDS_P2;PMS_P1;PMS_P2;Temp;Humidity;BMP_temperature;BMP_pressure;BME280_temperature;BME280_humidity;BME280_pressure;Samples;Min_cycle;Max_cycle;Signal;HPM_P1;HPM_P2
2023/07/14 01:27:09;;;;;;;19.70;17.80;;;;;;;;;;5357228;23;20352;-88
2023/07/14 01:32:24;;;;;;;17.60;16.10;;;;;;;;;;5984766;23;20351;-90
2023/07/14 02:20:47;;;;;;;20.13;17.95;;;;;;;;;;4974731;28;20207;-88
2023/07/14 02:26:14;;;;;;;24.63;19.77;;;;;;;;;;5107945;23;20210;-89
2023/07/14 02:31:27;;;;;;;20.75;18.95;;;;;;;;;;5147334;23;20475;-87
2023/07/14 02:33:56;;;;;;;20.73;18.73;;;;;;;;;;4946996;29;20599;-87
2023/07/14 02:36:39;;;;;;;19.70;17.90;;;;;;;;;;4969224;28;20203;-88
2023/07/14 02:39:07;;;;;;;21.75;19.60;;;;;;;;;;5139727;23;20223;-90
2023/07/14 02:41:38;;;;;;;22.55;20.45;;;;;;;;;;5136171;23;20234;-91
2023/07/14 02:44:07;;;;;;;23.63;19.58;;;;;;;;;;5177920;23;20290;-89
2023/07/14 02:49:13;;;;;;;23.52;17.77;;;;;;;;;;4941992;29;20219;-87
2023/07/14 02:54:18;;;;;;;19.05;16.75;;;;;;;;;;5317981;23;20242;-89
2023/07/14 02:56:45;;;;;;;21.05;17.45;;;;;;;;;;5421538;23;20266;-86
2023/07/14 02:59:13;;;;;;;21.42;17.13;;;;;;;;;;5487876;23;20246;-91
2023/07/14 03:01:43;;;;;;;21.23;17.42;;;;;;;;;;4974336;28;20271;-90
2023/07/14 03:04:11;;;;;;;19.00;17.15;;;;;;;;;;5328911;23;20759;-90
2023/07/14 03:06:42;;;;;;;19.80;17.23;;;;;;;;;;5459399;23;20222;-88
2023/07/14 03:09:16;;;;;;;19.95;16.40;;;;;;;;;;5569476;23;20249;-90
2023/07/14 03:14:33;;;;;;;23.92;15.93;;;;;;;;;;4911933;29;20220;-89
2023/07/14 03:17:01;;;;;;;18.13;16.42;;;;;;;;;;4918824;29;20283;-89
2023/07/14 03:19:32;;;;;;;18.53;16.53;;;;;;;;;;5023741;23;21271;-90
2023/07/14 03:27:29;;;;;;;16.55;15.05;;;;;;;;;;5127326;23;20343;-88
2023/07/14 03:29:57;;;;;;;16.83;15.23;;;;;;;;;;5066139;23;21725;-87
2023/07/14 03:32:26;;;;;;;21.20;15.93;;;;;;;;;;4953393;28;20734;-88
2023/07/14 03:37:36;;;;;;;20.58;14.60;;;;;;;;;;5253087;23;20251;-86
2023/07/14 03:48:00;;;;;;;13.10;11.70;;;;;;;;;;5898532;23;20463;-87
2023/07/14 03:50:28;;;;;;;12.03;10.00;;;;;;;;;;5725862;23;20493;-88
2023/07/14 04:03:38;;;;;;;21.23;11.70;;;;;;;;;;5715712;23;20433;-85
2023/07/14 04:08:43;;;;;;;15.93;12.30;;;;;;;;;;5498329;23;20468;-88
2023/07/14 04:19:14;;;;;;;15.80;10.13;;;;;;;;;;5544286;23;22024;-87
2023/07/14 04:24:19;;;;;;;17.00;10.57;;;;;;;;;;5180560;23;20508;-88
2023/07/14 04:27:00;;;;;;;22.37;11.30;;;;;;;;;;5890380;23;20531;-87
2023/07/14 04:29:29;;;;;;;15.27;10.53;;;;;;;;;;4962114;29;20458;-87
2023/07/14 04:34:42;;;;;;;18.37;10.07;;;;;;;;;;5487981;23;20456;-86
2023/07/14 04:37:10;;;;;;;15.93;10.30;;;;;;;;;;5027699;23;20529;-83
2023/07/14 04:39:38;;;;;;;15.87;9.30;;;;;;;;;;4948871;28;20530;-86
2023/07/14 04:42:08;;;;;;;15.47;9.70;;;;;;;;;;5057519;23;20498;-87
2023/07/14 04:44:38;;;;;;;13.23;9.53;;;;;;;;;;4945442;29;20441;-91
2023/07/14 04:47:06;;;;;;;15.03;8.20;;;;;;;;;;4948048;29;20516;-86
2023/07/14 04:49:34;;;;;;;11.70;8.50;;;;;;;;;;4949460;29;20446;-89
2023/07/14 04:52:02;;;;;;;19.47;9.57;;;;;;;;;;4947364;29;20450;-88
2023/07/14 04:54:32;;;;;;;13.60;10.13;;;;;;;;;;4944886;29;20458;-88
2023/07/14 04:57:03;;;;;;;13.33;9.30;;;;;;;;;;4944114;29;20726;-86
2023/07/14 04:59:33;;;;;;;13.63;9.67;;;;;;;;;;4943109;29;20781;-82
2023/07/14 05:02:02;;;;;;;19.50;10.20;;;;;;;;;;5264946;23;20498;-90
2023/07/14 05:04:33;;;;;;;14.83;9.27;;;;;;;;;;4967721;28;20457;-87
2023/07/14 05:07:01;;;;;;;12.70;9.43;;;;;;;;;;4954986;28;20446;-87
2023/07/14 05:09:38;;;;;;;11.00;8.90;;;;;;;;;;4971203;28;20473;-90
2023/07/14 05:12:10;;;;;;;12.90;10.10;;;;;;;;;;4962784;28;20524;-85
2023/07/14 05:14:42;;;;;;;9.03;8.23;;;;;;;;;;4972601;28;20525;-82
2023/07/14 05:17:09;;;;;;;12.67;8.00;;;;;;;;;;5087414;23;20512;-83
2023/07/14 05:19:37;;;;;;;12.87;9.73;;;;;;;;;;4961796;29;20432;-86
2023/07/14 05:22:07;;;;;;;14.53;9.77;;;;;;;;;;4961011;29;20462;-90
2023/07/14 05:24:37;;;;;;;10.20;9.07;;;;;;;;;;4963690;29;20471;-85
2023/07/14 05:27:05;;;;;;;12.17;8.90;;;;;;;;;;4961445;28;20616;-85
2023/07/14 05:29:33;;;;;;;10.73;7.27;;;;;;;;;;4955828;29;20447;-86
2023/07/14 05:32:01;;;;;;;11.30;7.13;;;;;;;;;;4962358;29;20468;-88
2023/07/14 05:34:28;;;;;;;19.63;7.30;;;;;;;;;;4963957;29;20694;-88
2023/07/14 05:36:56;;;;;;;8.40;7.03;;;;;;;;;;4965606;28;20756;-88
2023/07/14 05:39:28;;;;;;;8.17;7.57;;;;;;;;;;4962149;29;20779;-86
2023/07/14 05:41:58;;;;;;;12.90;8.00;;;;;;;;;;4969623;28;20441;-84
2023/07/14 05:44:26;;;;;;;11.23;7.80;;;;;;;;;;4974449;28;20468;-82
2023/07/14 05:47:00;;;;;;;11.17;7.53;;;;;;;;;;4970961;28;20427;-88
2023/07/14 05:49:36;;;;;;;7.50;6.80;;;;;;;;;;4956561;29;20504;-86
2023/07/14 05:52:03;;;;;;;10.40;5.50;;;;;;;;;;4962412;28;20431;-79
2023/07/14 05:54:31;;;;;;;10.63;5.83;;;;;;;;;;4960943;29;20453;-82
2023/07/14 05:56:58;;;;;;;9.90;6.00;;;;;;;;;;4960735;28;20728;-87
2023/07/14 05:59:29;;;;;;;7.23;6.00;;;;;;;;;;4960732;29;20456;-83
2023/07/14 06:02:03;;;;;;;6.60;6.00;;;;;;;;;;4962696;29;20531;-86
2023/07/14 06:04:36;;;;;;;8.33;6.53;;;;;;;;;;4961717;28;20420;-83
2023/07/14 06:07:04;;;;;;;9.53;6.27;;;;;;;;;;4961839;29;20416;-86
2023/07/14 06:09:35;;;;;;;7.33;6.50;;;;;;;;;;4963159;28;20588;-87
2023/07/14 06:12:04;;;;;;;9.63;6.37;;;;;;;;;;4962032;28;20827;-83
2023/07/14 06:14:32;;;;;;;7.60;6.90;;;;;;;;;;4962392;28;20464;-82
2023/07/14 06:17:01;;;;;;;7.03;5.97;;;;;;;;;;4960257;29;20507;-81
2023/07/14 06:19:29;;;;;;;7.80;5.07;;;;;;;;;;4953394;29;20499;-85
2023/07/14 06:21:59;;;;;;;7.00;6.47;;;;;;;;;;4957835;29;20432;-81
2023/07/14 06:24:26;;;;;;;7.50;6.17;;;;;;;;;;4960700;29;20441;-81
2023/07/14 06:26:54;;;;;;;7.90;4.73;;;;;;;;;;4963720;28;20764;-80
2023/07/14 06:29:22;;;;;;;5.70;5.20;;;;;;;;;;4958945;28;20523;-83
2023/07/14 06:31:49;;;;;;;6.50;6.00;;;;;;;;;;4964010;28;20432;-82
2023/07/14 06:34:17;;;;;;;6.40;5.80;;;;;;;;;;4966376;28;20456;-83
2023/07/14 06:36:49;;;;;;;7.63;4.73;;;;;;;;;;4961807;28;20429;-81
2023/07/14 06:39:17;;;;;;;4.73;4.40;;;;;;;;;;4960197;28;20463;-83
2023/07/14 06:41:46;;;;;;;6.03;5.23;;;;;;;;;;4960260;29;20471;-81
2023/07/14 06:44:15;;;;;;;6.13;5.60;;;;;;;;;;4959723;28;20513;-83
2023/07/14 06:46:52;;;;;;;6.50;5.63;;;;;;;;;;4961079;28;20633;-88
2023/07/14 06:49:20;;;;;;;6.43;5.80;;;;;;;;;;4961142;28;20790;-82
2023/07/14 06:51:52;;;;;;;8.00;5.70;;;;;;;;;;4959571;28;20472;-85
2023/07/14 06:54:21;;;;;;;5.03;4.63;;;;;;;;;;4960706;29;20846;-82
2023/07/14 06:56:48;;;;;;;5.63;5.00;;;;;;;;;;4960905;28;20457;-81
2023/07/14 06:59:17;;;;;;;5.03;4.63;;;;;;;;;;4943147;29;20513;-84
2023/07/14 07:01:45;;;;;;;7.87;4.87;;;;;;;;;;4958466;28;20432;-85
2023/07/14 07:04:15;;;;;;;6.40;5.80;;;;;;;;;;4959098;28;20449;-81
2023/07/14 07:06:43;;;;;;;5.50;5.00;;;;;;;;;;4951827;28;20449;-79
2023/07/14 07:09:10;;;;;;;5.50;5.10;;;;;;;;;;4965244;29;20441;-84
2023/07/14 07:11:38;;;;;;;5.67;5.03;;;;;;;;;;4966131;28;20481;-79
2023/07/14 07:14:05;;;;;;;6.57;5.30;;;;;;;;;;4961977;29;20467;-82
2023/07/14 07:16:33;;;;;;;6.03;5.43;;;;;;;;;;4956673;28;20815;-81
2023/07/14 07:19:00;;;;;;;5.73;5.30;;;;;;;;;;4962920;28;20515;-81
2023/07/14 07:21:27;;;;;;;7.33;6.07;;;;;;;;;;4966826;28;20475;-82
2023/07/14 07:23:55;;;;;;;6.83;5.70;;;;;;;;;;4964270;28;20472;-84
2023/07/14 07:26:23;;;;;;;6.40;4.53;;;;;;;;;;4962768;28;20764;-80
2023/07/14 07:28:50;;;;;;;5.30;4.80;;;;;;;;;;4962455;29;20469;-79
2023/07/14 07:31:18;;;;;;;7.20;5.50;;;;;;;;;;4962023;29;20449;-83
2023/07/14 07:33:46;;;;;;;5.70;5.40;;;;;;;;;;4963780;29;20487;-81
2023/07/14 07:36:17;;;;;;;5.17;4.77;;;;;;;;;;4961704;28;20491;-81
2023/07/14 07:38:47;;;;;;;15.70;5.90;;;;;;;;;;4960544;29;20456;-80
2023/07/14 07:41:16;;;;;;;8.20;5.43;;;;;;;;;;4962181;28;20541;-88
2023/07/14 07:43:47;;;;;;;5.37;4.97;;;;;;;;;;4970475;29;20400;-84
2023/07/14 07:46:15;;;;;;;5.97;5.47;;;;;;;;;;4976283;28;20428;-81
2023/07/14 07:48:44;;;;;;;6.80;5.37;;;;;;;;;;4966945;29;20845;-79
2023/07/14 07:51:12;;;;;;;6.13;5.27;;;;;;;;;;4962717;29;20442;-80
2023/07/14 07:53:40;;;;;;;6.90;6.30;;;;;;;;;;4960477;29;20448;-80
2023/07/14 07:56:07;;;;;;;5.90;5.43;;;;;;;;;;4961568;29;20443;-80
2023/07/14 07:58:34;;;;;;;8.13;4.20;;;;;;;;;;4960948;29;20722;-81
2023/07/14 08:01:03;;;;;;;5.03;4.63;;;;;;;;;;4963944;28;20715;-84
2023/07/14 08:03:38;;;;;;;6.20;5.70;;;;;;;;;;4962681;29;20513;-85
2023/07/14 08:06:08;;;;;;;4.77;4.40;;;;;;;;;;4960771;29;20676;-81
2023/07/14 08:08:38;;;;;;;6.13;5.53;;;;;;;;;;4961863;29;20452;-86
2023/07/14 08:11:07;;;;;;;7.13;6.30;;;;;;;;;;4942816;29;20480;-85
2023/07/14 08:13:35;;;;;;;7.00;6.23;;;;;;;;;;4963128;29;20448;-85
2023/07/14 08:16:05;;;;;;;5.70;5.13;;;;;;;;;;4962530;28;20800;-81
2023/07/14 08:19:06;;;;;;;6.17;5.57;;;;;;;;;;4963281;28;20488;-90
2023/07/14 08:21:35;;;;;;;6.00;5.40;;;;;;;;;;4965884;29;20716;-83
2023/07/14 08:24:04;;;;;;;14.07;5.80;;;;;;;;;;4964278;28;20453;-85
2023/07/14 08:26:33;;;;;;;6.00;5.40;;;;;;;;;;4960398;29;20428;-79
2023/07/14 08:29:00;;;;;;;7.90;6.10;;;;;;;;;;4955260;29;20535;-81
2023/07/14 08:31:28;;;;;;;7.13;5.77;;;;;;;;;;4959671;28;20498;-81
2023/07/14 08:33:56;;;;;;;6.53;5.80;;;;;;;;;;4963478;29;20452;-82
2023/07/14 08:36:24;;;;;;;5.10;4.70;;;;;;;;;;4961203;29;20528;-81
2023/07/14 08:38:54;;;;;;;4.93;4.53;;;;;;;;;;4961316;29;20513;-81
2023/07/14 08:41:21;;;;;;;5.37;4.93;;;;;;;;;;4961806;28;20680;-84
2023/07/14 08:44:12;;;;;;;5.60;5.10;;;;;;;;;;4960644;28;20734;-82
2023/07/14 08:46:58;;;;;;;5.87;5.33;;;;;;;;;;4957831;29;20454;-84
2023/07/14 08:49:29;;;;;;;8.07;5.77;;;;;;;;;;4956485;29;20484;-87
2023/07/14 08:52:15;;;;;;;6.40;5.90;;;;;;;;;;4958663;28;20442;-86
2023/07/14 08:54:45;;;;;;;6.30;5.30;;;;;;;;;;4961507;29;20664;-82
2023/07/14 08:57:16;;;;;;;9.00;5.03;;;;;;;;;;4961211;28;20442;-83
2023/07/14 08:59:45;;;;;;;6.20;5.80;;;;;;;;;;4961288;29;20453;-87
2023/07/14 09:02:19;;;;;;;5.87;5.37;;;;;;;;;;4960851;29;20757;-83
2023/07/14 09:04:52;;;;;;;5.10;4.70;;;;;;;;;;4957490;29;20465;-83
2023/07/14 09:07:23;;;;;;;6.73;5.77;;;;;;;;;;4960814;29;20445;-90
2023/07/14 09:09:51;;;;;;;9.00;4.60;;;;;;;;;;4959033;28;20454;-81
2023/07/14 09:12:37;;;;;;;4.90;4.53;;;;;;;;;;4963996;28;20645;-82
2023/07/14 09:15:09;;;;;;;5.33;4.83;;;;;;;;;;4957717;28;20738;-83
2023/07/14 09:17:49;;;;;;;6.23;5.63;;;;;;;;;;4961906;28;20638;-82
2023/07/14 09:20:24;;;;;;;7.00;5.40;;;;;;;;;;4964309;28;20519;-88
2023/07/14 09:23:02;;;;;;;5.60;5.17;;;;;;;;;;4960549;28;20795;-81
2023/07/14 09:25:30;;;;;;;4.47;4.17;;;;;;;;;;4962652;29;20483;-78
2023/07/14 09:27:57;;;;;;;5.90;5.30;;;;;;;;;;5026747;23;20601;-80
2023/07/14 09:30:31;;;;;;;5.70;5.20;;;;;;;;;;4944170;29;20490;-82
2023/07/14 09:33:02;;;;;;;5.63;5.10;;;;;;;;;;5122028;23;20709;-81
2023/07/14 09:35:30;;;;;;;4.70;4.30;;;;;;;;;;4943142;29;20505;-83
2023/07/14 09:38:05;;;;;;;5.73;4.80;;;;;;;;;;4943631;29;20481;-87
2023/07/14 09:40:34;;;;;;;5.60;5.20;;;;;;;;;;4943481;29;20887;-83
2023/07/14 09:43:02;;;;;;;6.57;5.03;;;;;;;;;;4942935;29;20651;-84
2023/07/14 09:45:39;;;;;;;6.33;5.43;;;;;;;;;;4942028;29;20458;-82
2023/07/14 09:48:14;;;;;;;10.00;5.57;;;;;;;;;;4941999;29;20452;-82
2023/07/14 09:50:48;;;;;;;5.87;5.47;;;;;;;;;;4944597;29;20591;-84
2023/07/14 09:53:16;;;;;;;6.50;5.83;;;;;;;;;;4941129;29;20452;-79
2023/07/14 09:55:46;;;;;;;5.73;5.33;;;;;;;;;;4942464;29;20513;-88
2023/07/14 09:58:17;;;;;;;6.30;4.80;;;;;;;;;;4941467;29;20489;-79
2023/07/14 10:00:48;;;;;;;5.80;5.30;;;;;;;;;;4944281;29;20486;-81
2023/07/14 10:03:16;;;;;;;7.40;5.57;;;;;;;;;;4941974;29;20448;-80
2023/07/14 10:05:58;;;;;;;5.30;4.90;;;;;;;;;;4944137;29;20456;-80
2023/07/14 10:08:31;;;;;;;7.67;4.93;;;;;;;;;;4943949;29;20447;-80
2023/07/14 10:10:59;;;;;;;7.00;5.10;;;;;;;;;;4946899;29;20462;-83
2023/07/14 10:13:28;;;;;;;5.53;4.97;;;;;;;;;;4947652;29;20435;-80
2023/07/14 10:15:57;;;;;;;6.27;4.77;;;;;;;;;;4939669;29;20511;-79
2023/07/14 10:18:27;;;;;;;6.90;5.57;;;;;;;;;;4946953;29;20505;-85
2023/07/14 10:20:57;;;;;;;5.17;4.73;;;;;;;;;;4941073;29;20870;-83
2023/07/14 10:23:25;;;;;;;8.60;5.17;;;;;;;;;;4940647;29;20435;-84
2023/07/14 10:25:53;;;;;;;5.20;4.90;;;;;;;;;;4943260;29;20472;-83
2023/07/14 10:28:23;;;;;;;4.60;4.30;;;;;;;;;;4942809;29;20435;-82
2023/07/14 10:30:59;;;;;;;5.57;4.67;;;;;;;;;;4937131;29;20512;-86
2023/07/14 10:33:31;;;;;;;5.17;4.77;;;;;;;;;;4941171;29;20450;-82
2023/07/14 10:36:14;;;;;;;5.07;4.63;;;;;;;;;;4939497;29;20617;-83
2023/07/14 10:38:45;;;;;;;4.37;4.00;;;;;;;;;;4939508;29;20480;-83
2023/07/14 10:41:14;;;;;;;4.50;4.20;;;;;;;;;;4945809;29;20429;-84
2023/07/14 10:43:49;;;;;;;5.20;4.00;;;;;;;;;;4942768;29;20498;-87
2023/07/14 10:46:41;;;;;;;4.43;4.13;;;;;;;;;;4946017;29;20610;-86
2023/07/14 10:49:23;;;;;;;5.47;5.00;;;;;;;;;;4938675;29;20834;-82
2023/07/14 10:51:59;;;;;;;5.43;4.37;;;;;;;;;;4940250;29;20506;-83
2023/07/14 10:54:32;;;;;;;4.80;4.40;;;;;;;;;;4943112;29;20420;-84
2023/07/14 10:57:03;;;;;;;6.03;5.43;;;;;;;;;;4941689;29;20448;-85
2023/07/14 10:59:34;;;;;;;5.17;4.70;;;;;;;;;;4955942;29;20476;-87
2023/07/14 11:02:13;;;;;;;8.70;5.20;;;;;;;;;;4954660;29;20429;-81
2023/07/14 11:04:43;;;;;;;4.53;4.23;;;;;;;;;;4952948;28;20461;-81
2023/07/14 11:07:30;;;;;;;5.93;5.07;;;;;;;;;;4944036;29;20749;-82
2023/07/14 11:09:59;;;;;;;4.80;4.40;;;;;;;;;;4935193;29;20452;-86
2023/07/14 11:12:32;;;;;;;5.40;4.67;;;;;;;;;;4948724;29;20530;-83
2023/07/14 11:15:02;;;;;;;6.37;4.77;;;;;;;;;;4944986;29;20409;-84
2023/07/14 11:17:46;;;;;;;7.50;5.10;;;;;;;;;;4944452;29;20424;-82
2023/07/14 11:20:25;;;;;;;9.17;4.70;;;;;;;;;;4940773;29;20740;-83
2023/07/14 11:23:02;;;;;;;6.73;5.27;;;;;;;;;;4942433;29;20424;-82
2023/07/14 11:25:39;;;;;;;5.17;4.77;;;;;;;;;;4941153;29;20437;-81
2023/07/14 11:28:16;;;;;;;6.33;4.97;;;;;;;;;;4942344;29;20440;-86
2023/07/14 11:30:47;;;;;;;5.27;4.77;;;;;;;;;;4942516;29;20484;-88
2023/07/14 11:33:22;;;;;;;4.50;4.20;;;;;;;;;;4944588;29;20966;-83
2023/07/14 11:35:53;;;;;;;4.80;4.50;;;;;;;;;;4944284;29;20472;-85
2023/07/14 11:38:28;;;;;;;4.50;4.20;;;;;;;;;;4941831;29;20456;-81
2023/07/14 11:40:55;;;;;;;5.30;4.10;;;;;;;;;;4933886;29;20632;-86
2023/07/14 11:43:27;;;;;;;5.13;4.70;;;;;;;;;;5079181;23;20586;-85
2023/07/14 11:45:59;;;;;;;6.43;4.60;;;;;;;;;;4934775;29;20421;-86
2023/07/14 11:48:37;;;;;;;4.50;4.03;;;;;;;;;;4936923;29;20473;-84
2023/07/14 11:51:07;;;;;;;5.20;4.80;;;;;;;;;;4939748;29;20425;-84
2023/07/14 11:53:35;;;;;;;4.77;4.37;;;;;;;;;;4950301;28;20447;-84
2023/07/14 11:56:14;;;;;;;6.63;4.30;;;;;;;;;;4948090;29;20449;-86
2023/07/14 11:58:44;;;;;;;5.23;4.20;;;;;;;;;;4947745;29;20463;-85
2023/07/14 12:01:17;;;;;;;4.50;3.60;;;;;;;;;;4948617;29;20499;-81
2023/07/14 12:03:56;;;;;;;6.47;4.20;;;;;;;;;;4945496;28;20790;-89
2023/07/14 12:06:26;;;;;;;4.97;4.47;;;;;;;;;;4950550;29;20476;-86
2023/07/14 12:09:02;;;;;;;4.93;4.53;;;;;;;;;;4939280;29;20415;-86
2023/07/14 12:11:30;;;;;;;5.10;4.50;;;;;;;;;;4953225;29;20589;-82
2023/07/14 12:14:26;;;;;;;5.00;4.70;;;;;;;;;;4959587;29;20472;-87
2023/07/14 12:16:54;;;;;;;5.27;4.87;;;;;;;;;;4953412;29;20440;-80
2023/07/14 12:19:31;;;;;;;5.63;5.20;;;;;;;;;;4952314;29;20501;-85
2023/07/14 12:22:05;;;;;;;5.63;5.03;;;;;;;;;;4939947;29;20427;-80
2023/07/14 12:24:36;;;;;;;6.80;4.60;;;;;;;;;;4995285;23;20513;-81
2023/07/14 12:27:17;;;;;;;5.43;4.93;;;;;;;;;;4946250;29;20450;-87
2023/07/14 12:29:45;;;;;;;5.30;4.90;;;;;;;;;;4944985;29;20444;-88
2023/07/14 12:32:24;;;;;;;9.97;4.67;;;;;;;;;;4952875;28;20421;-85
2023/07/14 12:34:52;;;;;;;7.17;5.13;;;;;;;;;;4940651;29;20806;-87
2023/07/14 12:37:21;;;;;;;5.10;4.70;;;;;;;;;;4951861;29;20472;-89
2023/07/14 12:39:53;;;;;;;6.83;4.20;;;;;;;;;;4953321;29;20800;-82
2023/07/14 12:42:22;;;;;;;5.47;4.97;;;;;;;;;;4944938;29;20500;-85
2023/07/14 12:44:52;;;;;;;5.17;4.80;;;;;;;;;;4952016;29;20533;-81
2023/07/14 12:47:22;;;;;;;5.20;4.70;;;;;;;;;;4950078;29;20446;-87
2023/07/14 12:49:52;;;;;;;5.33;4.90;;;;;;;;;;4952722;23;20840;-81
2023/07/14 12:52:30;;;;;;;6.13;4.90;;;;;;;;;;4943447;29;20413;-82
2023/07/14 12:55:00;;;;;;;5.70;5.20;;;;;;;;;;4945272;29;20474;-83
2023/07/14 12:57:30;;;;;;;9.47;5.50;;;;;;;;;;4941265;29;20514;-83
2023/07/14 12:59:59;;;;;;;6.03;5.43;;;;;;;;;;4943252;28;20482;-80
2023/07/14 13:02:26;;;;;;;6.33;5.73;;;;;;;;;;4943284;29;20432;-83
2023/07/14 13:04:53;;;;;;;5.23;4.83;;;;;;;;;;4943292;29;20474;-84
2023/07/14 13:07:23;;;;;;;5.87;5.17;;;;;;;;;;4941775;29;20452;-82
2023/07/14 13:10:00;;;;;;;5.07;4.77;;;;;;;;;;4943303;29;20519;-86
2023/07/14 13:12:28;;;;;;;13.73;5.00;;;;;;;;;;4942810;29;20436;-83
2023/07/14 13:14:55;;;;;;;5.30;4.90;;;;;;;;;;4942898;29;20512;-80
2023/07/14 13:17:25;;;;;;;4.90;4.43;;;;;;;;;;4947346;29;20523;-84
2023/07/14 13:19:53;;;;;;;5.30;4.90;;;;;;;;;;4944091;29;20486;-82
2023/07/14 13:22:23;;;;;;;5.17;4.77;;;;;;;;;;4939228;29;20442;-83
2023/07/14 13:25:20;;;;;;;4.57;4.17;;;;;;;;;;4942740;29;20447;-86
2023/07/14 13:27:48;;;;;;;4.80;4.50;;;;;;;;;;4933833;29;20485;-82
2023/07/14 13:30:22;;;;;;;5.67;5.27;;;;;;;;;;4942641;29;20436;-89
2023/07/14 13:32:53;;;;;;;4.13;3.83;;;;;;;;;;4949499;29;20421;-84
2023/07/14 13:35:30;;;;;;;4.43;4.07;;;;;;;;;;4942536;29;20499;-86
2023/07/14 13:38:02;;;;;;;4.30;3.97;;;;;;;;;;4944383;29;20534;-84
2023/07/14 13:40:34;;;;;;;5.87;4.73;;;;;;;;;;4943057;29;20653;-86
2023/07/14 13:43:02;;;;;;;4.33;4.13;;;;;;;;;;4937478;29;20484;-84
2023/07/14 13:45:44;;;;;;;4.57;4.17;;;;;;;;;;4945562;29;20473;-87
2023/07/14 13:48:25;;;;;;;7.07;4.40;;;;;;;;;;4938531;29;20500;-87
2023/07/14 13:50:53;;;;;;;4.70;4.30;;;;;;;;;;4943844;29;20445;-86
2023/07/14 13:53:22;;;;;;;4.50;4.13;;;;;;;;;;4943939;29;20465;-83
2023/07/14 13:55:49;;;;;;;5.47;3.80;;;;;;;;;;4942403;29;20709;-82
2023/07/14 13:58:19;;;;;;;6.80;3.83;;;;;;;;;;4943375;29;20496;-88
2023/07/14 14:00:47;;;;;;;7.33;4.00;;;;;;;;;;4944953;29;20580;-84
2023/07/14 14:03:16;;;;;;;4.27;3.97;;;;;;;;;;4946423;29;20513;-88
2023/07/14 14:05:46;;;;;;;6.37;4.50;;;;;;;;;;4941078;29;20453;-82
2023/07/14 14:08:15;;;;;;;4.97;4.47;;;;;;;;;;4944627;29;20663;-84
2023/07/14 14:10:42;;;;;;;4.70;4.20;;;;;;;;;;4945216;29;20441;-87
2023/07/14 14:13:10;;;;;;;4.00;3.70;;;;;;;;;;4946914;29;20762;-85
2023/07/14 14:15:41;;;;;;;4.67;4.30;;;;;;;;;;5361818;23;20563;-83
2023/07/14 14:18:16;;;;;;;4.43;4.03;;;;;;;;;;4951530;28;20453;-82
2023/07/14 14:20:43;;;;;;;4.93;4.40;;;;;;;;;;4940775;29;20483;-82
2023/07/14 14:23:12;;;;;;;5.10;4.70;;;;;;;;;;4944766;29;20638;-83
2023/07/14 14:25:40;;;;;;;4.17;3.87;;;;;;;;;;4935030;29;20543;-83
2023/07/14 14:28:08;;;;;;;5.87;4.50;;;;;;;;;;4945323;28;20490;-83
2023/07/14 14:30:38;;;;;;;10.50;4.43;;;;;;;;;;4956150;28;20461;-83
2023/07/14 14:33:09;;;;;;;6.13;4.20;;;;;;;;;;4944447;29;20759;-81
2023/07/14 14:35:36;;;;;;;4.20;3.90;;;;;;;;;;4933376;29;20421;-82
2023/07/14 14:38:13;;;;;;;4.37;4.07;;;;;;;;;;4944455;29;20609;-83
2023/07/14 14:41:02;;;;;;;3.90;3.70;;;;;;;;;;4943954;29;20466;-82
2023/07/14 14:43:30;;;;;;;4.17;3.87;;;;;;;;;;4939587;29;20446;-84
2023/07/14 14:45:58;;;;;;;4.30;4.00;;;;;;;;;;4956363;29;20484;-86
2023/07/14 14:48:27;;;;;;;10.00;4.30;;;;;;;;;;4949812;29;20450;-82
2023/07/14 14:51:12;;;;;;;10.93;5.47;;;;;;;;;;4931051;29;20461;-84
2023/07/14 14:53:40;;;;;;;4.20;3.80;;;;;;;;;;4939820;29;20508;-82
2023/07/14 14:56:11;;;;;;;5.07;4.63;;;;;;;;;;4932554;29;20457;-85
2023/07/14 14:58:39;;;;;;;5.17;4.77;;;;;;;;;;4929174;29;20431;-83
2023/07/14 15:01:15;;;;;;;4.73;4.23;;;;;;;;;;4938219;29;20479;-83
2023/07/14 15:03:43;;;;;;;9.00;4.50;;;;;;;;;;4939388;29;20502;-81
2023/07/14 15:06:11;;;;;;;4.00;3.70;;;;;;;;;;4943153;29;20777;-83
2023/07/14 15:08:38;;;;;;;6.10;4.93;;;;;;;;;;4949845;29;20504;-87
2023/07/14 15:11:06;;;;;;;4.17;3.87;;;;;;;;;;4935416;29;20457;-84
2023/07/14 15:13:33;;;;;;;5.37;4.23;;;;;;;;;;4951387;28;20657;-84
2023/07/14 15:16:05;;;;;;;4.83;4.23;;;;;;;;;;4940710;29;20533;-81
2023/07/14 15:18:32;;;;;;;4.40;4.10;;;;;;;;;;4946062;29;20445;-83
2023/07/14 15:21:00;;;;;;;4.73;4.33;;;;;;;;;;4952634;29;20802;-85
2023/07/14 15:23:29;;;;;;;6.10;4.07;;;;;;;;;;4953771;29;20471;-88
2023/07/14 15:25:57;;;;;;;5.30;4.03;;;;;;;;;;4953456;29;20467;-89
2023/07/14 15:28:25;;;;;;;4.30;3.90;;;;;;;;;;4948388;29;20520;-82
2023/07/14 15:30:54;;;;;;;4.20;3.90;;;;;;;;;;4952475;29;20453;-81
2023/07/14 15:33:23;;;;;;;6.00;4.20;;;;;;;;;;4950083;29;20454;-82
2023/07/14 15:35:52;;;;;;;4.07;3.50;;;;;;;;;;4950880;29;20526;-82
2023/07/14 15:38:24;;;;;;;4.63;4.23;;;;;;;;;;4959478;28;20463;-84
2023/07/14 15:40:56;;;;;;;5.17;4.07;;;;;;;;;;4950613;29;20558;-84
2023/07/14 15:43:27;;;;;;;4.27;3.90;;;;;;;;;;4966060;28;20461;-80
2023/07/14 15:45:58;;;;;;;5.73;4.33;;;;;;;;;;4943817;29;20466;-85
2023/07/14 15:48:34;;;;;;;3.67;3.47;;;;;;;;;;4955058;29;20457;-80
2023/07/14 15:51:24;;;;;;;5.37;4.47;;;;;;;;;;4945216;28;20423;-81
2023/07/14 15:53:55;;;;;;;7.07;4.40;;;;;;;;;;4959945;28;20442;-81
2023/07/14 15:56:22;;;;;;;4.33;4.03;;;;;;;;;;4957088;29;20453;-81
2023/07/14 15:58:50;;;;;;;4.30;3.97;;;;;;;;;;4954609;29;20464;-85
2023/07/14 16:01:22;;;;;;;3.90;3.70;;;;;;;;;;4951229;29;20904;-81
2023/07/14 16:03:57;;;;;;;5.07;4.60;;;;;;;;;;4956027;29;20433;-87
2023/07/14 16:06:25;;;;;;;4.43;4.00;;;;;;;;;;4960198;29;20455;-87
2023/07/14 16:08:54;;;;;;;5.00;4.50;;;;;;;;;;4952389;28;20501;-81
2023/07/14 16:11:32;;;;;;;4.37;4.07;;;;;;;;;;4955647;29;20659;-82
2023/07/14 16:14:01;;;;;;;5.13;4.00;;;;;;;;;;4953117;28;20446;-81
2023/07/14 16:16:29;;;;;;;4.73;4.43;;;;;;;;;;4955834;29;20492;-81
2023/07/14 16:18:56;;;;;;;5.43;3.97;;;;;;;;;;4949917;28;20450;-82
2023/07/14 16:21:26;;;;;;;6.13;4.70;;;;;;;;;;4945425;29;20532;-83
2023/07/14 16:23:54;;;;;;;7.90;4.50;;;;;;;;;;4946937;29;20445;-80
2023/07/14 16:26:24;;;;;;;4.67;4.27;;;;;;;;;;4945612;29;20458;-84
2023/07/14 16:28:52;;;;;;;6.57;4.23;;;;;;;;;;4939370;29;20439;-80
2023/07/14 16:31:20;;;;;;;4.30;3.90;;;;;;;;;;4930004;29;20436;-83
2023/07/14 16:33:48;;;;;;;4.60;4.20;;;;;;;;;;4941230;29;20425;-80
2023/07/14 16:36:23;;;;;;;4.50;4.10;;;;;;;;;;4935344;29;20746;-84
2023/07/14 16:38:51;;;;;;;4.33;3.80;;;;;;;;;;4943732;29;20631;-82
2023/07/14 16:41:19;;;;;;;5.13;4.73;;;;;;;;;;4941322;29;20532;-81
2023/07/14 16:43:46;;;;;;;4.80;4.50;;;;;;;;;;4929703;29;20463;-80
2023/07/14 16:46:14;;;;;;;4.77;4.47;;;;;;;;;;4940095;29;20479;-82
2023/07/14 16:48:41;;;;;;;4.53;3.87;;;;;;;;;;4944187;28;20421;-82
2023/07/14 16:51:12;;;;;;;4.60;4.30;;;;;;;;;;4943165;29;20417;-84
2023/07/14 16:53:40;;;;;;;9.23;4.17;;;;;;;;;;4935959;29;20434;-82
2023/07/14 16:56:11;;;;;;;4.13;3.80;;;;;;;;;;4943979;29;20424;-80
2023/07/14 16:58:40;;;;;;;4.73;4.20;;;;;;;;;;4934827;29;20484;-81
2023/07/14 17:01:13;;;;;;;4.67;4.27;;;;;;;;;;4933583;29;20510;-80
2023/07/14 17:03:40;;;;;;;4.47;4.17;;;;;;;;;;4941046;29;20433;-79
2023/07/14 17:06:10;;;;;;;4.70;4.40;;;;;;;;;;4953607;29;20465;-79
2023/07/14 17:08:43;;;;;;;5.70;4.80;;;;;;;;;;4954775;28;20434;-81
2023/07/14 17:11:10;;;;;;;4.13;3.83;;;;;;;;;;4938717;29;20538;-87
2023/07/14 17:13:44;;;;;;;4.83;4.33;;;;;;;;;;4939663;29;20484;-81
2023/07/14 17:16:12;;;;;;;4.33;4.03;;;;;;;;;;4939642;29;20534;-82
2023/07/14 17:18:39;;;;;;;4.40;4.10;;;;;;;;;;4929959;29;20864;-80
2023/07/14 17:21:10;;;;;;;5.10;4.70;;;;;;;;;;4927942;29;20516;-83
2023/07/14 17:23:38;;;;;;;7.13;5.00;;;;;;;;;;4938299;29;20744;-87
2023/07/14 17:26:06;;;;;;;4.30;4.00;;;;;;;;;;4941536;29;20832;-78
2023/07/14 17:28:36;;;;;;;4.93;4.57;;;;;;;;;;4954556;29;20453;-85
2023/07/14 17:31:04;;;;;;;3.83;3.53;;;;;;;;;;4934405;29;20850;-88
2023/07/14 17:33:32;;;;;;;4.73;4.33;;;;;;;;;;4934141;29;20701;-87
2023/07/14 17:36:06;;;;;;;4.57;4.33;;;;;;;;;;4950543;29;20677;-83
2023/07/14 17:38:37;;;;;;;5.30;4.90;;;;;;;;;;4947939;29;20424;-83
2023/07/14 17:41:05;;;;;;;5.33;4.63;;;;;;;;;;4941034;29;20479;-85
2023/07/14 17:43:33;;;;;;;5.60;4.30;;;;;;;;;;4948166;29;20768;-83
2023/07/14 17:46:00;;;;;;;5.73;4.50;;;;;;;;;;4949483;29;20443;-80
2023/07/14 17:48:28;;;;;;;8.03;5.37;;;;;;;;;;4956600;28;20443;-85
2023/07/14 17:50:55;;;;;;;4.87;4.50;;;;;;;;;;4951794;29;20605;-84
2023/07/14 17:53:24;;;;;;;4.87;4.57;;;;;;;;;;4941908;29;20496;-79
2023/07/14 17:55:52;;;;;;;4.50;4.20;;;;;;;;;;4943835;29;20429;-80
2023/07/14 17:58:21;;;;;;;5.93;4.60;;;;;;;;;;4946168;29;20513;-80
2023/07/14 18:00:49;;;;;;;4.67;4.37;;;;;;;;;;4932025;29;20675;-81
2023/07/14 18:03:21;;;;;;;5.47;5.07;;;;;;;;;;4932292;29;20561;-79
2023/07/14 18:05:49;;;;;;;4.90;4.60;;;;;;;;;;4939375;29;20474;-87
2023/07/14 18:08:17;;;;;;;6.13;5.43;;;;;;;;;;4936301;28;20743;-85
2023/07/14 18:10:49;;;;;;;5.43;5.03;;;;;;;;;;4952069;29;20424;-83